createdAt,value
2023-02-03T00:05:03.225Z,27.55
2023-02-03T00:10:07.259Z,41.05
2023-02-03T00:15:10.857Z,30.63
2023-02-03T00:20:14.979Z,38.50
2023-02-03T00:25:18.414Z,35.42
2023-02-03T00:30:21.215Z,33.65
2023-02-03T00:35:27.280Z,38.90
2023-02-03T00:40:30.373Z,35.67
2023-02-03T00:45:33.270Z,39.15
2023-02-03T00:50:37.555Z,37.35
2023-02-03T00:55:40.470Z,25.50
2023-02-03T01:00:43.270Z,32.88
2023-02-03T01:05:47.423Z,34.92
2023-02-03T01:10:50.385Z,28.33
2023-02-03T01:15:53.155Z,39.63
2023-02-03T01:20:57.273Z,33.08
2023-02-03T01:26:05.462Z,35.13
2023-02-03T01:31:13.173Z,28.80
2023-02-03T01:36:18.566Z,22.88
2023-02-03T01:41:23.111Z,38.15
2023-02-03T01:46:31.415Z,40.45
2023-02-03T01:51:36.555Z,34.20
2023-02-03T01:56:43.449Z,37.13
2023-02-03T02:01:47.345Z,31.80
2023-02-03T02:06:52.096Z,31.67
2023-02-03T02:11:54.854Z,29.35
2023-02-03T02:17:04.324Z,30.67
2023-02-03T02:22:14.254Z,34.67
2023-02-03T02:27:41.584Z,26.00
2023-02-03T02:33:03.414Z,21.75
2023-02-03T02:43:22.358Z,24.98
2023-02-03T02:48:34.115Z,30.55
2023-02-03T02:53:41.275Z,25.38
2023-02-03T02:58:49.460Z,22.27
2023-02-03T03:03:53.754Z,30.00
2023-02-03T03:09:00.683Z,23.65
2023-02-03T03:14:07.614Z,26.38
2023-02-03T03:19:17.276Z,21.98
2023-02-03T03:24:24.711Z,31.88
2023-02-03T03:29:32.061Z,23.98
2023-02-03T03:34:36.698Z,23.27
2023-02-03T03:39:48.243Z,18.65
2023-02-03T03:44:55.218Z,22.02
2023-02-03T03:50:01.736Z,27.48
2023-02-03T03:55:09.594Z,22.92
2023-02-03T04:00:16.082Z,22.08
2023-02-03T04:05:20.945Z,24.70
2023-02-03T04:10:29.972Z,23.30
2023-02-03T04:15:34.073Z,20.35
2023-02-03T04:20:38.199Z,18.60
2023-02-03T04:25:41.201Z,22.25
2023-02-03T04:30:43.998Z,22.58
2023-02-03T04:35:48.161Z,16.83
2023-02-03T04:40:51.337Z,20.38
2023-02-03T04:45:54.200Z,12.95
2023-02-03T04:51:02.271Z,22.00
2023-02-03T04:56:05.773Z,20.90
2023-02-03T05:01:10.218Z,10.60
2023-02-03T05:06:14.380Z,21.85
2023-02-03T05:11:17.137Z,13.13
2023-02-03T05:16:19.985Z,18.95
2023-02-03T05:21:24.125Z,15.35
2023-02-03T05:26:27.329Z,12.75
2023-02-03T05:31:30.159Z,17.27
2023-02-03T05:36:34.334Z,13.70
2023-02-03T05:41:57.368Z,11.02
2023-02-03T05:47:01.198Z,15.85
2023-02-03T05:52:05.513Z,15.95
2023-02-03T05:57:08.314Z,17.85
2023-02-03T06:02:11.041Z,13.20
2023-02-03T06:07:15.185Z,17.30
2023-02-03T06:12:17.922Z,13.98
2023-02-03T06:17:20.722Z,16.45
2023-02-03T06:22:25.407Z,15.85
2023-02-03T06:27:28.363Z,16.40
2023-02-03T06:32:31.375Z,24.50
2023-02-03T06:37:37.519Z,18.05
2023-02-03T06:42:40.461Z,21.50
2023-02-03T06:47:43.752Z,18.67
2023-02-03T06:52:50.173Z,20.95
2023-02-03T06:57:52.932Z,18.48
2023-02-03T07:02:56.374Z,23.55
2023-02-03T07:08:00.572Z,17.92
2023-02-03T07:13:04.639Z,17.48
2023-02-03T07:18:07.455Z,15.45
2023-02-03T07:23:11.603Z,20.00
2023-02-03T07:28:14.587Z,19.52
2023-02-03T07:33:17.429Z,11.80
2023-02-03T07:38:22.503Z,17.27
2023-02-03T07:43:25.650Z,18.02
2023-02-03T07:48:28.517Z,15.85
2023-02-03T07:53:33.264Z,15.52
2023-02-03T07:58:36.070Z,20.42
2023-02-03T08:03:39.159Z,23.80
2023-02-03T08:08:43.885Z,21.88
2023-02-03T08:13:46.919Z,17.58
2023-02-03T08:18:49.765Z,15.13
2023-02-03T08:23:53.981Z,14.63
2023-02-03T08:28:56.740Z,13.73
2023-02-03T08:33:59.692Z,11.40
2023-02-03T08:39:03.903Z,13.90
2023-02-03T08:44:06.712Z,23.02
2023-02-03T08:49:09.584Z,18.05
2023-02-03T08:54:14.010Z,20.55
2023-02-03T08:59:17.646Z,21.58
2023-02-03T09:04:24.616Z,19.85
2023-02-03T09:09:29.083Z,20.85
2023-02-03T09:14:33.063Z,17.15
2023-02-03T09:19:36.720Z,18.38
2023-02-03T09:24:41.314Z,13.23
2023-02-03T09:29:44.114Z,23.10
2023-02-03T09:34:46.899Z,24.92
2023-02-03T09:39:51.036Z,19.27
2023-02-03T09:45:06.812Z,24.83
2023-02-03T09:50:15.828Z,16.98
2023-02-03T09:55:30.124Z,26.70
2023-02-03T10:00:37.106Z,28.48
2023-02-03T10:05:55.911Z,18.52
2023-02-03T10:11:13.175Z,20.40
2023-02-03T10:16:39.306Z,19.20
2023-02-03T10:21:47.159Z,24.77
2023-02-03T10:26:52.051Z,27.90
2023-02-03T10:31:58.608Z,28.40
2023-02-03T10:37:09.793Z,16.98
2023-02-03T10:42:14.908Z,14.93
2023-02-03T10:47:30.412Z,22.17
2023-02-03T10:52:34.944Z,20.52
2023-02-03T10:57:40.229Z,18.73
2023-02-03T11:02:43.477Z,17.15
2023-02-03T11:07:46.599Z,10.95
2023-02-03T11:12:51.818Z,15.88
2023-02-03T11:17:54.701Z,16.05
2023-02-03T11:22:57.723Z,17.02
2023-02-03T11:28:06.875Z,21.25
2023-02-03T11:33:18.716Z,16.63
2023-02-03T11:38:31.505Z,23.97
2023-02-03T11:43:35.678Z,19.30
2023-02-03T11:48:40.649Z,33.35
2023-02-03T11:54:00.312Z,18.10
2023-02-03T11:59:27.574Z,20.48
2023-02-03T12:04:49.064Z,16.63
2023-02-03T12:10:01.256Z,21.50
2023-02-03T12:15:22.622Z,21.98
2023-02-03T12:20:49.179Z,25.17
2023-02-03T12:26:06.670Z,20.63
2023-02-03T12:31:18.495Z,27.85
2023-02-03T12:36:27.897Z,31.17
2023-02-03T12:41:36.081Z,25.38
2023-02-03T12:46:46.048Z,18.05
2023-02-03T12:51:53.611Z,32.22
2023-02-03T12:57:01.584Z,26.08
2023-02-03T13:02:17.905Z,31.88
2023-02-03T13:07:26.799Z,25.77
2023-02-03T13:12:31.980Z,21.05
2023-02-03T13:17:44.841Z,30.92
2023-02-03T13:22:47.731Z,24.20
2023-02-03T13:27:57.988Z,12.88
2023-02-03T13:33:28.107Z,19.10
2023-02-03T13:38:56.247Z,23.95
2023-02-03T13:44:00.528Z,27.63
2023-02-03T13:49:07.482Z,27.13
2023-02-03T13:54:21.312Z,28.25
2023-02-03T13:59:41.040Z,27.25
2023-02-03T14:04:56.260Z,27.10
2023-02-03T14:10:23.389Z,30.77
2023-02-03T14:15:32.637Z,26.08
2023-02-03T14:21:00.717Z,38.92
2023-02-03T14:26:03.934Z,23.77
2023-02-03T14:31:16.026Z,25.30
2023-02-03T14:36:42.321Z,30.10
2023-02-03T14:41:54.436Z,24.98
2023-02-03T14:47:11.981Z,22.02
2023-02-03T14:52:42.693Z,29.13
2023-02-03T14:57:49.603Z,24.58
2023-02-03T15:03:22.892Z,27.98
2023-02-03T15:08:36.719Z,26.45
2023-02-03T15:13:39.643Z,28.10
2023-02-03T15:18:42.872Z,23.13
2023-02-03T15:23:50.955Z,18.13
2023-02-03T15:28:58.427Z,26.85
2023-02-03T15:34:06.774Z,21.10
2023-02-03T15:39:22.497Z,17.77
2023-02-03T15:44:30.826Z,17.98
2023-02-03T15:49:39.026Z,23.33
2023-02-03T15:54:53.374Z,21.63
2023-02-03T15:59:59.506Z,30.58
2023-02-03T16:05:06.078Z,28.70
2023-02-03T16:15:38.577Z,21.90
2023-02-03T16:20:50.421Z,27.15
2023-02-03T16:26:06.603Z,27.87
2023-02-03T16:31:34.026Z,20.70
2023-02-03T16:36:59.327Z,21.75
2023-02-03T16:42:32.284Z,27.48
2023-02-03T16:47:57.380Z,20.20
2023-02-03T16:53:00.178Z,26.83
2023-02-03T16:58:02.953Z,27.17
2023-02-03T17:03:07.128Z,29.70
2023-02-03T17:08:10.140Z,26.13
2023-02-03T17:13:13.308Z,25.00
2023-02-03T17:18:17.848Z,24.63
2023-02-03T17:23:20.707Z,26.30
2023-02-03T17:28:23.514Z,28.02
2023-02-03T17:33:28.268Z,21.23
2023-02-03T17:38:31.128Z,29.63
2023-02-03T17:54:18.608Z,23.52
2023-02-03T17:59:21.410Z,22.83
2023-02-03T18:04:26.102Z,25.35
2023-02-03T18:09:28.858Z,25.50
2023-02-03T18:14:31.623Z,23.85
2023-02-03T18:19:35.826Z,22.60
2023-02-03T18:24:39.751Z,27.98
2023-02-03T18:29:44.718Z,26.17
2023-02-03T18:34:48.956Z,26.88
2023-02-03T18:39:51.763Z,24.65
2023-02-03T18:44:54.671Z,20.10
2023-02-03T18:49:58.833Z,21.92
2023-02-03T18:55:01.579Z,31.42
2023-02-03T19:00:05.198Z,29.33
2023-02-03T19:05:11.610Z,23.63
2023-02-03T19:10:14.392Z,25.88
2023-02-03T19:15:18.603Z,23.63
2023-02-03T19:20:22.847Z,28.65
2023-02-03T19:25:26.389Z,21.23
2023-02-03T19:30:29.419Z,20.85
2023-02-03T19:35:33.812Z,22.55
2023-02-03T19:40:36.607Z,24.60
2023-02-03T19:45:39.405Z,22.63
2023-02-03T19:50:46.313Z,24.65
2023-02-03T19:55:49.284Z,22.55
2023-02-03T20:00:52.146Z,28.77
2023-02-03T20:05:56.325Z,25.73
2023-02-03T20:10:59.177Z,29.33
2023-02-03T20:16:02.355Z,24.55
2023-02-03T20:21:06.914Z,27.80
2023-02-03T20:26:10.166Z,22.20
2023-02-03T20:31:14.439Z,22.70
2023-02-03T20:36:18.714Z,32.95
2023-02-03T20:41:21.510Z,27.08
2023-02-03T20:46:24.363Z,28.85
2023-02-03T20:51:29.249Z,28.67
2023-02-03T20:56:32.063Z,26.30
2023-02-03T21:01:34.866Z,26.08
2023-02-03T21:06:39.498Z,32.17
2023-02-03T21:11:42.919Z,27.00
2023-02-03T21:16:47.595Z,24.48
2023-02-03T21:21:52.845Z,31.38
2023-02-03T21:26:56.642Z,30.48
2023-02-03T21:32:00.291Z,27.45
2023-02-03T21:37:21.980Z,25.05
2023-02-03T21:42:43.533Z,21.88
2023-02-03T21:47:48.132Z,27.58
2023-02-03T21:52:52.358Z,31.98
2023-02-03T21:57:55.474Z,28.10
2023-02-03T22:03:00.628Z,20.70
2023-02-03T22:08:14.570Z,31.25
2023-02-03T22:13:17.387Z,29.15
2023-02-03T22:18:20.150Z,36.15
2023-02-03T22:23:24.371Z,24.33
2023-02-03T22:28:27.547Z,26.15
2023-02-03T22:33:30.318Z,39.80
2023-02-03T22:38:35.333Z,27.25
2023-02-03T22:43:38.082Z,29.70
2023-02-03T22:48:40.869Z,35.80
2023-02-03T22:53:45.019Z,30.52
2023-02-03T22:58:48.027Z,33.78
2023-02-03T23:03:50.905Z,27.90
2023-02-03T23:08:55.517Z,32.53
2023-02-03T23:13:58.293Z,38.38
2023-02-03T23:19:01.107Z,31.00
2023-02-03T23:24:05.700Z,32.67
2023-02-03T23:29:08.478Z,27.63
2023-02-03T23:34:28.625Z,41.95
2023-02-03T23:39:32.759Z,48.70
2023-02-03T23:44:35.676Z,31.45
2023-02-03T23:49:38.562Z,27.20
2023-02-03T23:54:42.664Z,23.60
2023-02-03T23:59:45.422Z,20.15
